createdAt,value
2019-03-02T00:00:29.550Z,73.40
2019-03-02T00:03:00.726Z,74.00
2019-03-02T00:05:32.819Z,73.50
2019-03-02T00:08:08.196Z,73.70
2019-03-02T00:10:40.817Z,74.80
2019-03-02T00:13:11.548Z,74.80
2019-03-02T00:15:42.833Z,74.80
2019-03-02T00:18:12.899Z,76.10
2019-03-02T00:20:42.811Z,76.50
2019-03-02T00:23:15.810Z,77.40
2019-03-02T00:25:44.482Z,78.20
2019-03-02T00:28:14.622Z,78.70
2019-03-02T00:30:45.443Z,79.20
2019-03-02T00:33:16.610Z,80.10
2019-03-02T00:35:47.311Z,80.20
2019-03-02T00:38:17.239Z,80.30
2019-03-02T00:40:47.243Z,81.30
2019-03-02T00:43:17.331Z,81.80
2019-03-02T00:45:48.862Z,82.50
2019-03-02T00:48:19.130Z,83.10
2019-03-02T00:50:49.164Z,83.20
2019-03-02T00:53:19.046Z,83.20
2019-03-02T00:55:48.979Z,82.90
2019-03-02T00:58:19.207Z,82.50
2019-03-02T01:00:49.968Z,83.00
2019-03-02T01:03:20.967Z,83.50
2019-03-02T01:05:51.171Z,82.80
2019-03-02T01:08:21.034Z,82.30
2019-03-02T01:10:51.040Z,81.50
2019-03-02T01:13:23.082Z,81.50
2019-03-02T01:15:53.742Z,81.50
2019-03-02T01:18:24.258Z,80.40
2019-03-02T01:20:54.279Z,80.20
2019-03-02T01:23:27.565Z,81.40
2019-03-02T01:25:56.145Z,81.50
2019-03-02T01:28:26.061Z,81.10
2019-03-02T01:30:56.074Z,81.50
2019-03-02T01:33:28.607Z,80.80
2019-03-02T01:35:57.892Z,81.20
2019-03-02T01:38:28.142Z,82.20
2019-03-02T01:41:19.096Z,82.20
2019-03-02T01:43:51.427Z,81.30
2019-03-02T01:46:23.325Z,81.30
2019-03-02T01:49:01.604Z,81.30
2019-03-02T01:51:33.934Z,80.80
2019-03-02T01:54:05.235Z,80.50
2019-03-02T01:56:37.769Z,79.30
2019-03-02T01:59:12.644Z,80.50
2019-03-02T02:01:46.113Z,80.90
2019-03-02T02:04:22.598Z,81.30
2019-03-02T02:06:53.287Z,80.10
2019-03-02T02:09:28.159Z,80.20
2019-03-02T02:12:01.110Z,81.30
2019-03-02T02:14:36.525Z,81.20
2019-03-02T02:17:06.389Z,79.80
2019-03-02T02:19:38.633Z,79.40
2019-03-02T02:22:08.337Z,78.90
2019-03-02T02:24:38.246Z,77.80
2019-03-02T02:27:08.158Z,77.90
2019-03-02T02:29:40.679Z,77.60
2019-03-02T02:32:09.934Z,76.90
2019-03-02T02:34:39.866Z,76.70
2019-03-02T02:37:09.694Z,74.60
2019-03-02T02:39:39.603Z,74.80
2019-03-02T02:42:09.612Z,74.60
2019-03-02T02:44:39.656Z,75.30
2019-03-02T02:47:12.403Z,73.70
2019-03-02T02:49:44.434Z,74.70
2019-03-02T02:52:13.347Z,74.90
2019-03-02T02:54:43.355Z,74.70
2019-03-02T02:57:13.122Z,74.20
2019-03-02T02:59:43.010Z,74.20
2019-03-02T03:02:13.040Z,75.20
2019-03-02T03:04:42.949Z,74.80
2019-03-02T03:07:14.289Z,75.30
2019-03-02T03:09:50.851Z,74.30
2019-03-02T03:12:22.658Z,74.60
2019-03-02T03:14:54.309Z,74.70
2019-03-02T03:17:28.277Z,74.30
2019-03-02T03:19:56.369Z,73.90
2019-03-02T03:22:26.288Z,74.30
2019-03-02T03:24:56.310Z,74.90
2019-03-02T03:27:26.331Z,75.00
2019-03-02T03:29:56.663Z,75.60
2019-03-02T03:32:26.672Z,76.10
2019-03-02T03:34:56.536Z,75.60
2019-03-02T03:37:26.568Z,75.40
2019-03-02T03:39:56.593Z,75.10
2019-03-02T03:43:18.495Z,74.40
2019-03-02T03:45:52.864Z,74.60
2019-03-02T03:48:29.432Z,74.10
2019-03-02T03:50:59.574Z,74.90
2019-03-02T03:53:31.831Z,75.40
2019-03-02T03:56:06.783Z,75.60
2019-03-02T03:58:40.044Z,75.30
2019-03-02T04:01:17.316Z,75.90
2019-03-02T04:03:47.207Z,74.50
2019-03-02T04:06:18.148Z,73.70
2019-03-02T04:08:48.128Z,73.00
2019-03-02T04:12:08.026Z,72.20
2019-03-02T04:14:37.910Z,72.20
2019-03-02T04:17:45.016Z,72.70
2019-03-02T04:20:19.966Z,72.70
2019-03-02T04:22:50.951Z,72.40
2019-03-02T04:25:21.025Z,72.90
2019-03-02T04:27:54.291Z,72.20
2019-03-02T04:30:30.712Z,72.00
2019-03-02T04:32:54.665Z,71.90
2019-03-02T04:35:24.505Z,73.00
2019-03-02T04:37:56.457Z,72.90
2019-03-02T04:40:27.817Z,73.10
2019-03-02T04:42:58.395Z,72.10
2019-03-02T04:45:28.292Z,72.10
2019-03-02T04:47:59.852Z,72.00
2019-03-02T04:50:30.043Z,72.10
2019-03-02T04:52:59.925Z,71.90
2019-03-02T04:55:29.784Z,72.40
2019-03-02T04:57:59.638Z,72.00
2019-03-02T05:00:32.046Z,72.50
2019-03-02T05:03:02.679Z,72.10
2019-03-02T05:05:32.963Z,72.00
2019-03-02T05:08:05.186Z,72.20
2019-03-02T05:10:34.751Z,72.20
2019-03-02T05:13:05.988Z,71.40
2019-03-02T05:15:36.124Z,71.70
2019-03-02T05:18:06.058Z,70.50
2019-03-02T05:20:37.793Z,70.60
2019-03-02T05:23:08.216Z,70.00
2019-03-02T05:25:38.093Z,70.10
2019-03-02T05:28:09.998Z,70.70
2019-03-02T05:30:39.911Z,71.50
2019-03-02T05:33:09.855Z,70.90
2019-03-02T05:35:39.760Z,71.10
2019-03-02T05:38:11.721Z,70.90
2019-03-02T05:40:41.775Z,71.40
2019-03-02T05:43:11.671Z,72.20
2019-03-02T05:45:41.536Z,71.90
2019-03-02T05:48:11.451Z,71.80
2019-03-02T05:50:41.380Z,71.50
2019-03-02T05:53:11.212Z,72.10
2019-03-02T05:55:41.233Z,72.10
2019-03-02T05:58:12.510Z,72.10
2019-03-02T06:00:43.016Z,72.80
2019-03-02T06:03:13.146Z,72.80
2019-03-02T06:05:43.023Z,73.40
2019-03-02T06:08:13.242Z,73.30
2019-03-02T06:10:43.171Z,75.20
2019-03-02T06:13:13.429Z,76.40
2019-03-02T06:15:46.369Z,78.10
2019-03-02T06:18:15.148Z,79.70
2019-03-02T06:20:45.063Z,80.90
2019-03-02T06:23:14.924Z,80.80
2019-03-02T06:25:44.864Z,81.10
2019-03-02T06:28:14.928Z,82.50
2019-03-02T06:30:45.026Z,84.00
2019-03-02T06:33:35.188Z,84.70
2019-03-02T06:36:08.731Z,85.70
2019-03-02T06:38:37.742Z,84.20
2019-03-02T06:41:07.805Z,84.10
2019-03-02T06:43:37.753Z,83.60
2019-03-02T06:46:07.578Z,81.70
2019-03-02T06:48:37.512Z,81.90
2019-03-02T06:51:07.808Z,81.00
2019-03-02T06:53:39.226Z,79.30
2019-03-02T06:56:09.079Z,79.20
2019-03-02T06:58:38.898Z,80.20
2019-03-02T07:01:08.922Z,80.50
2019-03-02T07:03:38.834Z,79.60
2019-03-02T07:06:11.638Z,79.00
2019-03-02T07:08:40.524Z,78.20
2019-03-02T07:11:10.516Z,78.70
2019-03-02T07:13:40.519Z,77.80
2019-03-02T07:16:10.430Z,77.30
2019-03-02T07:19:02.717Z,76.90
2019-03-02T07:21:32.551Z,77.10
2019-03-02T07:24:02.514Z,76.60
2019-03-02T07:26:32.334Z,77.40
2019-03-02T07:29:02.359Z,78.70
2019-03-02T07:31:32.225Z,79.00
2019-03-02T07:34:04.825Z,77.40
2019-03-02T07:36:34.841Z,76.70
2019-03-02T07:39:07.127Z,76.70
2019-03-02T07:41:37.151Z,76.00
2019-03-02T07:44:15.238Z,75.90
2019-03-02T07:46:47.990Z,75.50
2019-03-02T07:49:25.108Z,75.10
2019-03-02T07:52:07.509Z,74.80
2019-03-02T07:54:42.488Z,75.70
2019-03-02T07:57:23.282Z,75.30
2019-03-02T07:59:54.538Z,74.00
2019-03-02T08:02:25.720Z,74.20
2019-03-02T08:05:03.269Z,74.00
2019-03-02T08:07:39.327Z,73.10
2019-03-02T08:10:10.896Z,74.60
2019-03-02T08:12:46.628Z,74.20
2019-03-02T08:15:20.306Z,73.40
2019-03-02T08:17:52.472Z,72.40
2019-03-02T08:20:24.414Z,72.40
2019-03-02T08:22:54.731Z,72.40
2019-03-02T08:25:24.808Z,72.40
2019-03-02T08:27:56.098Z,72.40
2019-03-02T08:30:29.775Z,71.80
2019-03-02T08:32:59.193Z,72.40
2019-03-02T08:35:30.507Z,72.60
2019-03-02T08:38:05.444Z,72.50
2019-03-02T08:40:33.908Z,71.20
2019-03-02T08:43:04.254Z,70.70
2019-03-02T08:45:34.281Z,70.10
2019-03-02T08:48:04.817Z,70.20
2019-03-02T08:50:34.931Z,70.20
2019-03-02T08:53:05.033Z,69.90
2019-03-02T08:55:35.153Z,69.70
2019-03-02T08:58:05.064Z,69.00
2019-03-02T09:00:35.053Z,68.20
2019-03-02T09:03:08.146Z,68.20
2019-03-02T09:05:45.117Z,69.00
2019-03-02T09:08:13.163Z,68.90
2019-03-02T09:10:49.218Z,68.30
2019-03-02T09:13:19.010Z,68.50
2019-03-02T09:15:53.370Z,68.30
2019-03-02T09:18:23.889Z,67.60
2019-03-02T09:20:54.451Z,66.70
2019-03-02T09:23:52.963Z,66.80
2019-03-02T09:26:24.883Z,68.00
2019-03-02T09:28:57.478Z,68.70
2019-03-02T09:31:28.417Z,67.00
2019-03-02T09:34:31.588Z,67.70
2019-03-02T09:37:03.775Z,66.90
2019-03-02T09:39:38.405Z,67.40
2019-03-02T09:42:21.443Z,67.60
2019-03-02T09:44:51.596Z,67.60
2019-03-02T09:47:22.607Z,67.50
2019-03-02T09:49:57.259Z,66.00
2019-03-02T09:52:35.353Z,66.70
2019-03-02T09:55:18.496Z,66.80
2019-03-02T09:58:10.384Z,66.50
2019-03-02T10:00:43.151Z,65.30
2019-03-02T10:03:14.136Z,64.90
2019-03-02T10:05:46.616Z,65.00
2019-03-02T10:08:18.170Z,66.50
2019-03-02T10:10:48.388Z,66.50
2019-03-02T10:13:18.763Z,66.60
2019-03-02T10:16:00.567Z,67.60
2019-03-02T10:18:32.300Z,67.00
2019-03-02T10:21:06.102Z,67.10
2019-03-02T10:23:38.928Z,67.40
2019-03-02T10:26:09.444Z,66.60
2019-03-02T10:28:39.628Z,66.40
2019-03-02T10:31:10.880Z,66.60
2019-03-02T10:33:41.510Z,66.00
2019-03-02T10:36:11.507Z,65.90
2019-03-02T10:38:41.458Z,65.40
2019-03-02T10:41:11.486Z,66.50
2019-03-02T10:43:42.744Z,65.60
2019-03-02T10:46:12.892Z,66.60
2019-03-02T10:48:43.122Z,67.60
2019-03-02T10:51:13.256Z,69.80
2019-03-02T10:53:43.346Z,70.20
2019-03-02T10:56:13.515Z,69.60
2019-03-02T10:58:43.475Z,67.70
2019-03-02T11:01:14.241Z,65.40
2019-03-02T11:03:46.535Z,64.40
2019-03-02T11:06:33.080Z,63.70
2019-03-02T11:09:28.895Z,63.70
2019-03-02T11:12:17.616Z,63.20
2019-03-02T11:15:23.594Z,63.30
2019-03-02T11:18:13.610Z,62.40
2019-03-02T11:20:51.838Z,62.40
2019-03-02T11:23:39.571Z,62.30
2019-03-02T11:26:31.814Z,62.70
2019-03-02T11:29:27.256Z,62.30
2019-03-02T11:32:09.565Z,61.50
2019-03-02T11:34:51.329Z,61.60
2019-03-02T11:37:36.918Z,62.40
2019-03-02T11:40:21.747Z,61.40
2019-03-02T11:43:05.133Z,60.50
2019-03-02T11:46:02.225Z,59.90
2019-03-02T11:48:39.265Z,59.60
2019-03-02T11:51:28.032Z,57.80
2019-03-02T11:54:10.936Z,57.70
2019-03-02T11:57:03.262Z,56.20
2019-03-02T11:59:47.181Z,56.80
2019-03-02T12:02:48.417Z,56.50
2019-03-02T12:05:36.690Z,56.00
2019-03-02T12:08:26.122Z,55.30
2019-03-02T12:11:18.422Z,55.00
2019-03-02T12:14:11.336Z,53.90
2019-03-02T12:17:09.950Z,53.20
2019-03-02T12:20:08.519Z,52.10
2019-03-02T12:22:43.794Z,52.20
2019-03-02T12:25:35.153Z,52.70
2019-03-02T12:28:22.468Z,52.80
2019-03-02T12:31:12.127Z,51.30
2019-03-02T12:33:59.871Z,51.20
2019-03-02T12:36:53.199Z,49.70
2019-03-02T12:39:41.693Z,51.00
2019-03-02T12:42:35.702Z,51.40
2019-03-02T12:45:25.791Z,50.80
2019-03-02T12:48:21.367Z,51.30
2019-03-02T12:50:58.919Z,52.60
2019-03-02T12:53:47.561Z,52.40
2019-03-02T12:56:29.069Z,53.70
2019-03-02T12:59:08.422Z,54.20
2019-03-02T13:02:04.064Z,54.10
2019-03-02T13:04:51.876Z,54.00
2019-03-02T13:07:39.439Z,53.00
2019-03-02T13:10:20.301Z,52.50
2019-03-02T13:13:21.693Z,52.60
2019-03-02T13:16:19.821Z,52.30
2019-03-02T13:19:17.504Z,50.90
2019-03-02T13:21:55.575Z,48.60
2019-03-02T13:24:57.923Z,49.30
2019-03-02T13:27:43.958Z,48.60
2019-03-02T13:30:35.259Z,48.30
2019-03-02T13:33:30.002Z,47.70
2019-03-02T13:36:09.061Z,47.30
2019-03-02T13:39:14.438Z,47.30
2019-03-02T13:41:52.464Z,47.00
2019-03-02T13:44:44.797Z,47.30
2019-03-02T13:47:38.733Z,47.70
2019-03-02T13:50:31.036Z,47.10
2019-03-02T13:53:19.889Z,48.30
2019-03-02T13:56:30.041Z,48.00
2019-03-02T13:59:23.198Z,47.90
2019-03-02T14:02:07.628Z,47.40
2019-03-02T14:05:04.943Z,47.30
2019-03-02T14:07:37.481Z,47.30
2019-03-02T14:10:27.937Z,47.30
2019-03-02T14:13:21.310Z,46.80
2019-03-02T14:16:01.195Z,47.00
2019-03-02T14:18:42.684Z,47.90
2019-03-02T14:21:34.417Z,48.20
2019-03-02T14:24:38.799Z,48.50
2019-03-02T14:27:19.879Z,48.80
2019-03-02T14:29:58.709Z,49.30
2019-03-02T14:32:51.537Z,48.80
2019-03-02T14:35:41.977Z,48.40
2019-03-02T14:38:46.355Z,48.70
2019-03-02T14:41:24.377Z,48.40
2019-03-02T14:44:30.211Z,48.90
2019-03-02T14:47:17.756Z,49.40
2019-03-02T14:50:07.973Z,50.10
2019-03-02T14:52:57.554Z,49.90
2019-03-02T14:55:49.822Z,49.90
2019-03-02T14:58:39.518Z,50.70
2019-03-02T15:01:22.216Z,51.30
2019-03-02T15:04:11.712Z,51.50
2019-03-02T15:07:22.264Z,52.20
2019-03-02T15:10:15.952Z,52.20
2019-03-02T15:13:22.170Z,52.40
2019-03-02T15:16:10.561Z,52.80
2019-03-02T15:18:53.462Z,53.10
2019-03-02T15:21:47.768Z,51.80
2019-03-02T15:24:31.705Z,52.00
2019-03-02T15:27:39.532Z,51.90
2019-03-02T15:30:34.189Z,51.80
2019-03-02T15:33:30.356Z,52.10
2019-03-02T15:36:19.616Z,52.30
2019-03-02T15:39:12.873Z,51.80
2019-03-02T15:42:18.051Z,51.40
2019-03-02T15:44:53.743Z,51.00
2019-03-02T15:47:47.452Z,50.80
2019-03-02T15:50:31.553Z,50.50
2019-03-02T15:53:11.221Z,50.30
2019-03-02T15:56:23.354Z,50.30
2019-03-02T15:59:08.380Z,50.30
2019-03-02T16:02:05.671Z,50.20
2019-03-02T16:04:55.592Z,50.40
2019-03-02T16:07:40.984Z,50.20
2019-03-02T16:10:30.529Z,50.00
2019-03-02T16:13:32.324Z,50.10
2019-03-02T16:16:30.703Z,50.50
2019-03-02T16:19:12.855Z,50.50
2019-03-02T16:22:05.161Z,51.20
2019-03-02T16:24:53.210Z,51.10
2019-03-02T16:27:45.215Z,51.30
2019-03-02T16:30:34.694Z,51.30
2019-03-02T16:33:31.202Z,51.70
2019-03-02T16:36:28.355Z,52.00
2019-03-02T16:39:16.238Z,52.10
2019-03-02T16:41:57.544Z,52.20
2019-03-02T16:44:49.618Z,52.70
2019-03-02T16:47:32.100Z,52.80
2019-03-02T16:50:24.281Z,52.90
2019-03-02T16:53:16.170Z,53.10
2019-03-02T16:56:00.494Z,53.40
2019-03-02T16:58:56.903Z,53.00
2019-03-02T17:01:45.034Z,53.00
2019-03-02T17:04:34.961Z,53.30
2019-03-02T17:07:15.439Z,53.60
2019-03-02T17:09:56.838Z,53.90
2019-03-02T17:12:36.415Z,55.10
2019-03-02T17:15:26.893Z,55.00
2019-03-02T17:18:16.453Z,54.90
2019-03-02T17:21:06.194Z,54.80
2019-03-02T17:23:52.742Z,55.40
2019-03-02T17:26:42.106Z,56.20
2019-03-02T17:29:35.879Z,56.50
2019-03-02T17:32:28.210Z,56.90
2019-03-02T17:35:21.538Z,57.60
2019-03-02T17:38:12.150Z,58.10
2019-03-02T17:41:07.235Z,58.40
2019-03-02T17:44:03.902Z,58.80
2019-03-02T17:47:08.600Z,58.70
2019-03-02T17:50:04.171Z,59.30
2019-03-02T17:52:54.405Z,59.20
2019-03-02T17:55:50.429Z,59.80
2019-03-02T17:58:56.559Z,59.90
2019-03-02T18:02:09.742Z,59.70
2019-03-02T18:04:53.081Z,59.90
2019-03-02T18:08:40.056Z,60.00
2019-03-02T18:11:29.154Z,60.00
2019-03-02T18:14:20.130Z,59.60
2019-03-02T18:17:08.655Z,59.50
2019-03-02T18:19:39.772Z,59.50
2019-03-02T18:22:11.663Z,59.40
2019-03-02T18:24:41.674Z,59.10
2019-03-02T18:27:11.769Z,59.10
2019-03-02T18:29:41.687Z,59.60
2019-03-02T18:32:11.946Z,59.50
2019-03-02T18:34:42.494Z,59.70
2019-03-02T18:37:15.830Z,59.80
2019-03-02T18:39:45.907Z,60.10
2019-03-02T18:42:16.093Z,60.30
2019-03-02T18:44:46.028Z,60.10
2019-03-02T18:47:19.840Z,59.90
2019-03-02T18:50:10.847Z,60.00
2019-03-02T18:53:00.472Z,59.50
2019-03-02T18:55:31.193Z,59.50
2019-03-02T18:58:01.129Z,59.60
2019-03-02T19:00:34.489Z,59.30
2019-03-02T19:03:05.241Z,59.50
2019-03-02T19:05:35.327Z,59.50
2019-03-02T19:08:05.215Z,59.20
2019-03-02T19:10:35.396Z,59.20
2019-03-02T19:13:08.479Z,59.40
2019-03-02T19:15:37.650Z,59.30
2019-03-02T19:18:07.651Z,59.20
2019-03-02T19:20:37.561Z,59.00
2019-03-02T19:23:07.700Z,58.80
2019-03-02T19:25:37.715Z,58.70
2019-03-02T19:28:07.634Z,59.10
2019-03-02T19:30:37.644Z,59.00
2019-03-02T19:33:07.769Z,59.40
2019-03-02T19:35:38.033Z,59.10
2019-03-02T19:38:11.320Z,59.40
2019-03-02T19:40:41.279Z,59.40
2019-03-02T19:43:11.259Z,59.30
2019-03-02T19:51:35.864Z,60.00
2019-03-02T19:58:02.630Z,60.40
2019-03-02T20:00:37.157Z,60.50
2019-03-02T20:03:09.845Z,61.50
2019-03-02T20:05:50.321Z,62.70
2019-03-02T20:08:25.777Z,63.10
2019-03-02T20:11:07.353Z,63.30
2019-03-02T20:13:50.586Z,64.10
2019-03-02T20:16:41.247Z,64.10
2019-03-02T20:19:19.447Z,64.00
2019-03-02T20:21:55.593Z,64.20
2019-03-02T20:24:30.392Z,64.00
2019-03-02T20:27:02.169Z,64.10
2019-03-02T20:30:00.613Z,64.20
2019-03-02T20:32:31.200Z,64.70
2019-03-02T20:35:03.580Z,65.10
2019-03-02T20:37:36.793Z,65.60
2019-03-02T20:40:18.928Z,65.90
2019-03-02T20:42:56.255Z,66.40
2019-03-02T20:48:53.077Z,67.60
2019-03-02T20:51:25.189Z,68.40
2019-03-02T20:53:55.428Z,68.80
2019-03-02T20:56:27.935Z,69.00
2019-03-02T20:59:17.952Z,69.10
2019-03-02T21:02:29.753Z,69.00
2019-03-02T21:05:00.292Z,68.90
2019-03-02T21:07:30.516Z,69.20
2019-03-02T21:10:00.713Z,69.60
2019-03-02T21:12:30.711Z,69.60
2019-03-02T21:15:00.656Z,69.40
2019-03-02T21:17:30.539Z,69.20
2019-03-02T21:20:00.455Z,69.50
2019-03-02T21:22:30.366Z,69.30
2019-03-02T21:25:00.528Z,69.30
2019-03-02T21:27:31.404Z,69.30
2019-03-02T21:30:02.391Z,69.30
2019-03-02T21:32:32.813Z,69.50
2019-03-02T21:35:06.191Z,69.20
2019-03-02T21:37:36.979Z,69.20
2019-03-02T21:40:53.833Z,69.30
2019-03-02T21:57:59.877Z,69.00
2019-03-02T22:00:39.348Z,69.20
2019-03-02T22:03:09.293Z,69.30
2019-03-02T22:05:39.160Z,69.50
2019-03-02T22:08:09.049Z,69.70
2019-03-02T22:10:47.103Z,69.80
2019-03-02T22:13:20.267Z,70.00
2019-03-02T22:15:51.038Z,70.10
2019-03-02T22:18:21.464Z,70.20
2019-03-02T22:20:52.310Z,70.40
2019-03-02T22:23:22.895Z,71.10
2019-03-02T22:26:00.565Z,71.40
2019-03-02T22:28:31.228Z,71.60
2019-03-02T22:31:06.727Z,71.90
2019-03-02T22:33:37.639Z,72.30
2019-03-02T22:36:09.515Z,72.50
2019-03-02T22:38:42.254Z,73.30
2019-03-02T22:41:12.394Z,73.30
2019-03-02T22:44:37.716Z,73.30
2019-03-02T22:47:17.513Z,73.30
2019-03-02T22:49:49.882Z,73.30
2019-03-02T22:52:36.132Z,74.60
2019-03-02T22:55:19.119Z,74.40
2019-03-02T22:57:55.798Z,75.10
2019-03-02T23:01:41.663Z,75.40
2019-03-02T23:04:19.678Z,75.50
2019-03-02T23:06:53.696Z,75.50
2019-03-02T23:09:47.019Z,75.40
2019-03-02T23:12:30.920Z,75.30
2019-03-02T23:28:33.769Z,74.70
2019-03-02T23:31:07.266Z,74.90
2019-03-02T23:33:40.918Z,74.70
2019-03-02T23:36:17.255Z,74.60
2019-03-02T23:38:53.950Z,74.70
2019-03-02T23:41:29.832Z,74.60
2019-03-02T23:44:01.422Z,74.80
2019-03-02T23:46:31.731Z,74.80
2019-03-02T23:49:01.653Z,74.60
2019-03-02T23:51:31.568Z,74.90
2019-03-02T23:54:04.150Z,74.90
2019-03-02T23:57:06.337Z,74.70
2019-03-02T23:59:58.330Z,74.80
